CPA811 ZSPD-YSSY
Flight info
| Callsign | CPA811 |
|---|---|
| Flight time | N/A |
| Altitude | 35000 |
| Route | LAM82D LAMEN A593 SADLI Y590 BEDAR Y591 ISPIT Z41 AGIKA/N0494F370 G339 SABGU/N0499F360 A339 KEITH/N0495F370 R204 KEONE/N0490F390 R204 CS Y177 AKROM Y153 GOBAR/N0486F410 Y153 KANKO DCT SULMI DCT OVNOM H652 BOREE |
| Aircraft | A35K/H-SDE2E3GHIJ3J4J5LM1ORWXY/LB1D1 |
Departure
| Time | 2026-05-05 14:42 |
|---|---|
| Airport | Shanghai Pudong International Airport (ZSPD) |
Arrival
| Time | N/A |
|---|---|
| Airport | Sydney Kingsford Smith International Airport (YSSY) |
| Time | Latitude | Longitude | Altitude | Speed | Heading |
|---|---|---|---|---|---|
| 2026-05-05 14:14 | 31.13669 | 121.80194 | 29 ft | 0 kts | 72° |
| 2026-05-05 14:28 | 31.13661 | 121.80166 | 28 ft | 4 kts | 72° |
| 2026-05-05 14:28 | 31.13654 | 121.80138 | 27 ft | 2 kts | 72° |
| 2026-05-05 14:29 | 31.13645 | 121.80114 | 26 ft | 4 kts | 48° |
| 2026-05-05 14:29 | 31.13625 | 121.80100 | 27 ft | 4 kts | 354° |
| 2026-05-05 14:29 | 31.13601 | 121.80107 | 27 ft | 4 kts | 342° |
| 2026-05-05 14:29 | 31.13591 | 121.80111 | 27 ft | 0 kts | 342° |
| 2026-05-05 14:32 | 31.13600 | 121.80108 | 27 ft | 5 kts | 342° |
| 2026-05-05 14:33 | 31.13651 | 121.80089 | 26 ft | 9 kts | 342° |
| 2026-05-05 14:33 | 31.13719 | 121.80063 | 29 ft | 12 kts | 341° |
| 2026-05-05 14:33 | 31.13823 | 121.80023 | 29 ft | 17 kts | 342° |
| 2026-05-05 14:33 | 31.13943 | 121.79978 | 29 ft | 19 kts | 342° |
| 2026-05-05 14:34 | 31.14073 | 121.79929 | 29 ft | 20 kts | 341° |
| 2026-05-05 14:34 | 31.14186 | 121.79927 | 29 ft | 15 kts | 53° |
| 2026-05-05 14:34 | 31.14224 | 121.80047 | 29 ft | 17 kts | 71° |
| 2026-05-05 14:34 | 31.14264 | 121.80190 | 29 ft | 20 kts | 72° |
| 2026-05-05 14:35 | 31.14309 | 121.80356 | 29 ft | 23 kts | 72° |
| 2026-05-05 14:35 | 31.14362 | 121.80543 | 29 ft | 25 kts | 71° |
| 2026-05-05 14:35 | 31.14416 | 121.80737 | 29 ft | 26 kts | 72° |
| 2026-05-05 14:35 | 31.14471 | 121.80938 | 28 ft | 26 kts | 71° |
| 2026-05-05 14:36 | 31.14525 | 121.81132 | 28 ft | 20 kts | 71° |
| 2026-05-05 14:36 | 31.14545 | 121.81201 | 28 ft | 9 kts | 72° |
| 2026-05-05 14:36 | 31.14567 | 121.81279 | 28 ft | 11 kts | 72° |
| 2026-05-05 14:36 | 31.14592 | 121.81373 | 28 ft | 14 kts | 72° |
| 2026-05-05 14:37 | 31.14674 | 121.81411 | 29 ft | 14 kts | 347° |
| 2026-05-05 14:37 | 31.14777 | 121.81378 | 28 ft | 16 kts | 344° |
| 2026-05-05 14:37 | 31.14890 | 121.81333 | 28 ft | 18 kts | 342° |
| 2026-05-05 14:37 | 31.15013 | 121.81287 | 29 ft | 20 kts | 341° |
| 2026-05-05 14:38 | 31.15098 | 121.81255 | 28 ft | 21 kts | 342° |
| 2026-05-05 14:38 | 31.15211 | 121.81212 | 28 ft | 22 kts | 342° |
| 2026-05-05 14:38 | 31.15363 | 121.81155 | 28 ft | 24 kts | 342° |
| 2026-05-05 14:38 | 31.15531 | 121.81092 | 28 ft | 27 kts | 342° |
| 2026-05-05 14:39 | 31.15656 | 121.81045 | 28 ft | 2 kts | 342° |
| 2026-05-05 14:39 | 31.15664 | 121.81042 | 28 ft | 0 kts | 342° |
| 2026-05-05 14:39 | 31.15666 | 121.81041 | 28 ft | 1 kts | 342° |
| 2026-05-05 14:39 | 31.15680 | 121.81036 | 28 ft | 3 kts | 342° |
| 2026-05-05 14:40 | 31.15711 | 121.81028 | 28 ft | 6 kts | 354° |
| 2026-05-05 14:40 | 31.15765 | 121.81095 | 28 ft | 15 kts | 73° |
| 2026-05-05 14:40 | 31.15767 | 121.81217 | 27 ft | 19 kts | 126° |
| 2026-05-05 14:40 | 31.15720 | 121.81250 | 27 ft | 0 kts | 163° |
| 2026-05-05 14:41 | 31.15710 | 121.81253 | 27 ft | 8 kts | 163° |
| 2026-05-05 14:41 | 31.15489 | 121.81335 | 28 ft | 65 kts | 162° |
| 2026-05-05 14:42 | 31.14858 | 121.81573 | 28 ft | 125 kts | 162° |
| 2026-05-05 14:42 | 31.13866 | 121.81945 | 59 ft | 171 kts | 163° |
| 2026-05-05 14:42 | 31.12793 | 121.82347 | 896 ft | 152 kts | 164° |
| 2026-05-05 14:42 | 31.11813 | 121.82734 | 1690 ft | 145 kts | 162° |
| 2026-05-05 14:43 | 31.10890 | 121.83264 | 2225 ft | 158 kts | 150° |
| 2026-05-05 14:43 | 31.09935 | 121.84076 | 2500 ft | 182 kts | 147° |
| 2026-05-05 14:43 | 31.08849 | 121.84992 | 2850 ft | 203 kts | 147° |
| 2026-05-05 14:43 | 31.07604 | 121.85971 | 3162 ft | 227 kts | 148° |
| 2026-05-05 14:44 | 31.06235 | 121.87001 | 3764 ft | 239 kts | 149° |
| 2026-05-05 14:44 | 31.04820 | 121.88045 | 4420 ft | 248 kts | 149° |
| 2026-05-05 14:44 | 31.03326 | 121.89140 | 4990 ft | 260 kts | 148° |
| 2026-05-05 14:44 | 31.01776 | 121.90281 | 5630 ft | 267 kts | 147° |
| 2026-05-05 14:45 | 31.00305 | 121.91629 | 6350 ft | 272 kts | 139° |
| 2026-05-05 14:45 | 30.98890 | 121.93126 | 7034 ft | 275 kts | 138° |
| 2026-05-05 14:45 | 30.97479 | 121.94639 | 7701 ft | 277 kts | 138° |
| 2026-05-05 14:45 | 30.96051 | 121.96162 | 8348 ft | 280 kts | 138° |
| 2026-05-05 14:46 | 30.94657 | 121.97783 | 8983 ft | 285 kts | 129° |
| 2026-05-05 14:46 | 30.93745 | 121.99829 | 9532 ft | 289 kts | 104° |
| 2026-05-05 14:46 | 30.93659 | 122.02141 | 10081 ft | 294 kts | 80° |
| 2026-05-05 14:46 | 30.94218 | 122.04503 | 10398 ft | 307 kts | 72° |
| 2026-05-05 14:47 | 30.94917 | 122.06896 | 10648 ft | 320 kts | 71° |
| 2026-05-05 14:47 | 30.95648 | 122.09417 | 10882 ft | 335 kts | 72° |
| 2026-05-05 14:47 | 30.96395 | 122.12047 | 11125 ft | 348 kts | 72° |
| 2026-05-05 14:47 | 30.97161 | 122.14773 | 11361 ft | 360 kts | 72° |
| 2026-05-05 14:48 | 30.97948 | 122.17596 | 11588 ft | 372 kts | 72° |
| 2026-05-05 14:48 | 30.98748 | 122.20472 | 11784 ft | 384 kts | 72° |
| 2026-05-05 14:48 | 30.99564 | 122.23479 | 12087 ft | 392 kts | 74° |
| 2026-05-05 14:48 | 31.00011 | 122.26631 | 12396 ft | 398 kts | 88° |
| 2026-05-05 14:49 | 31.00053 | 122.29893 | 12735 ft | 404 kts | 91° |
| 2026-05-05 14:49 | 31.00036 | 122.33171 | 13235 ft | 404 kts | 90° |
| 2026-05-05 14:49 | 31.00022 | 122.36477 | 13528 ft | 411 kts | 90° |
| 2026-05-05 14:49 | 31.00012 | 122.39818 | 13908 ft | 413 kts | 90° |
| 2026-05-05 14:50 | 31.00006 | 122.43170 | 14318 ft | 414 kts | 90° |
| 2026-05-05 14:50 | 31.00014 | 122.46552 | 14582 ft | 419 kts | 90° |
| 2026-05-05 14:50 | 31.00018 | 122.49969 | 14978 ft | 419 kts | 90° |
| 2026-05-05 14:50 | 31.00022 | 122.53328 | 15310 ft | 421 kts | 90° |
| 2026-05-05 14:51 | 31.00026 | 122.56770 | 15582 ft | 424 kts | 90° |
| 2026-05-05 14:51 | 31.00029 | 122.60209 | 15966 ft | 424 kts | 90° |
| 2026-05-05 14:51 | 31.00032 | 122.63668 | 16198 ft | 429 kts | 90° |
| 2026-05-05 14:51 | 31.00033 | 122.67159 | 16477 ft | 431 kts | 90° |
| 2026-05-05 14:52 | 31.00034 | 122.70641 | 16794 ft | 431 kts | 89° |
| 2026-05-05 14:52 | 31.00033 | 122.74172 | 17344 ft | 438 kts | 89° |
| 2026-05-05 14:52 | 31.00032 | 122.77738 | 18226 ft | 440 kts | 89° |
| 2026-05-05 14:52 | 31.00030 | 122.81277 | 18878 ft | 444 kts | 89° |
| 2026-05-05 14:53 | 31.00026 | 122.84908 | 19514 ft | 448 kts | 89° |
| 2026-05-05 14:53 | 31.00022 | 122.88566 | 20151 ft | 452 kts | 89° |
| 2026-05-05 14:53 | 31.00018 | 122.92239 | 20738 ft | 456 kts | 89° |
| 2026-05-05 14:53 | 31.00169 | 122.95937 | 21259 ft | 459 kts | 82° |
| 2026-05-05 14:54 | 31.00818 | 122.99576 | 21760 ft | 461 kts | 71° |
| 2026-05-05 14:54 | 31.02054 | 123.03040 | 22289 ft | 462 kts | 60° |
| 2026-05-05 14:54 | 31.03774 | 123.06201 | 22856 ft | 464 kts | 53° |
| 2026-05-05 14:54 | 31.05664 | 123.09269 | 23386 ft | 467 kts | 52° |
| 2026-05-05 14:55 | 31.07578 | 123.12359 | 23874 ft | 472 kts | 52° |
| 2026-05-05 14:55 | 31.09480 | 123.15446 | 24264 ft | 477 kts | 52° |
| 2026-05-05 14:55 | 31.11450 | 123.18652 | 24619 ft | 483 kts | 53° |
| 2026-05-05 14:55 | 31.13395 | 123.21825 | 24999 ft | 488 kts | 53° |
| 2026-05-05 14:56 | 31.15375 | 123.25061 | 25386 ft | 492 kts | 53° |
| 2026-05-05 14:56 | 31.17375 | 123.28334 | 25781 ft | 497 kts | 53° |
| 2026-05-05 14:56 | 31.19389 | 123.31632 | 26160 ft | 501 kts | 53° |
| 2026-05-05 14:56 | 31.21426 | 123.34972 | 26545 ft | 506 kts | 53° |
| 2026-05-05 14:57 | 31.23481 | 123.38343 | 26922 ft | 510 kts | 53° |
| 2026-05-05 14:57 | 31.25546 | 123.41736 | 27308 ft | 514 kts | 53° |
| 2026-05-05 14:57 | 31.27625 | 123.45154 | 27706 ft | 518 kts | 53° |
| 2026-05-05 14:57 | 31.29719 | 123.48599 | 28046 ft | 522 kts | 53° |
| 2026-05-05 14:58 | 31.31833 | 123.52080 | 28398 ft | 526 kts | 53° |
| 2026-05-05 14:58 | 31.33942 | 123.55557 | 28735 ft | 530 kts | 53° |
| 2026-05-05 14:58 | 31.36091 | 123.59073 | 29063 ft | 534 kts | 53° |
| 2026-05-05 14:58 | 31.38269 | 123.62627 | 29378 ft | 538 kts | 53° |
| 2026-05-05 14:59 | 31.40449 | 123.66189 | 29709 ft | 541 kts | 53° |
| 2026-05-05 14:59 | 31.42634 | 123.69768 | 30322 ft | 537 kts | 53° |
| 2026-05-05 14:59 | 31.44823 | 123.73355 | 30502 ft | 543 kts | 53° |
| 2026-05-05 14:59 | 31.47021 | 123.76960 | 30760 ft | 545 kts | 53° |
| 2026-05-05 15:00 | 31.49228 | 123.80585 | 31146 ft | 545 kts | 53° |
| 2026-05-05 15:00 | 31.50684 | 123.82979 | 31377 ft | 546 kts | 54° |
| 2026-05-05 15:00 | 31.53630 | 123.87827 | 31798 ft | 547 kts | 54° |
| 2026-05-05 15:00 | 31.55818 | 123.91431 | 32126 ft | 547 kts | 54° |
| 2026-05-05 15:01 | 31.58028 | 123.95076 | 32452 ft | 548 kts | 54° |
| 2026-05-05 15:01 | 31.60105 | 123.98843 | 32539 ft | 554 kts | 62° |
| 2026-05-05 15:01 | 31.61632 | 124.02989 | 32676 ft | 555 kts | 74° |
| 2026-05-05 15:01 | 31.62724 | 124.07318 | 33044 ft | 553 kts | 76° |
| 2026-05-05 15:02 | 31.63722 | 124.11676 | 33356 ft | 553 kts | 77° |
| 2026-05-05 15:02 | 31.64682 | 124.16066 | 33632 ft | 554 kts | 78° |
| 2026-05-05 15:02 | 31.65625 | 124.20433 | 33917 ft | 554 kts | 78° |
| 2026-05-05 15:02 | 31.66578 | 124.24831 | 34076 ft | 557 kts | 78° |
| 2026-05-05 15:03 | 31.67543 | 124.29257 | 34209 ft | 560 kts | 78° |
| 2026-05-05 15:03 | 31.68514 | 124.33670 | 34627 ft | 555 kts | 77° |
| 2026-05-05 15:03 | 31.69480 | 124.38046 | 34950 ft | 553 kts | 77° |
| 2026-05-05 15:03 | 31.70449 | 124.42431 | 35159 ft | 554 kts | 77° |
| 2026-05-05 15:04 | 31.71414 | 124.46804 | 35371 ft | 554 kts | 77° |
| 2026-05-05 15:04 | 31.72385 | 124.51210 | 35487 ft | 557 kts | 78° |
| 2026-05-05 15:04 | 31.74326 | 124.60052 | 35785 ft | 560 kts | 77° |
| 2026-05-05 15:05 | 31.76251 | 124.68848 | 36238 ft | 558 kts | 77° |
| 2026-05-05 15:05 | 31.77217 | 124.73279 | 36474 ft | 558 kts | 77° |
| 2026-05-05 15:05 | 31.78180 | 124.77699 | 36616 ft | 559 kts | 77° |
| 2026-05-05 15:06 | 31.79144 | 124.82135 | 36700 ft | 561 kts | 77° |
| 2026-05-05 15:06 | 31.80106 | 124.86572 | 36917 ft | 560 kts | 77° |
| 2026-05-05 15:06 | 31.81067 | 124.91010 | 37100 ft | 560 kts | 77° |
| 2026-05-05 15:06 | 31.81982 | 124.95466 | 37253 ft | 559 kts | 82° |
| 2026-05-05 15:07 | 31.82424 | 124.99987 | 37367 ft | 554 kts | 92° |
| 2026-05-05 15:07 | 31.82223 | 125.04437 | 37374 ft | 550 kts | 104° |
| 2026-05-05 15:07 | 31.81632 | 125.08875 | 37468 ft | 549 kts | 105° |
| 2026-05-05 15:07 | 31.80940 | 125.13289 | 37646 ft | 547 kts | 106° |
| 2026-05-05 15:08 | 31.80206 | 125.17670 | 37812 ft | 547 kts | 107° |
| 2026-05-05 15:08 | 31.79459 | 125.22048 | 37955 ft | 547 kts | 107° |
| 2026-05-05 15:08 | 31.78710 | 125.26451 | 38071 ft | 547 kts | 107° |
| 2026-05-05 15:09 | 31.77232 | 125.35254 | 38268 ft | 549 kts | 107° |
| 2026-05-05 15:09 | 31.76501 | 125.39656 | 38403 ft | 549 kts | 107° |
| 2026-05-05 15:09 | 31.75771 | 125.44061 | 38541 ft | 548 kts | 106° |
| 2026-05-05 15:09 | 31.75043 | 125.48449 | 38668 ft | 548 kts | 106° |
| 2026-05-05 15:10 | 31.74311 | 125.52854 | 38820 ft | 548 kts | 107° |
| 2026-05-05 15:10 | 31.72890 | 125.61671 | 38959 ft | 551 kts | 102° |
| 2026-05-05 15:10 | 31.72661 | 125.66176 | 39022 ft | 558 kts | 91° |
| 2026-05-05 15:11 | 31.73093 | 125.70725 | 39030 ft | 564 kts | 80° |
| 2026-05-05 15:11 | 31.74910 | 125.79749 | 38959 ft | 571 kts | 77° |
| 2026-05-05 15:12 | 31.76962 | 125.88731 | 39070 ft | 572 kts | 77° |